sensor_id;sensor_type;location;lat;lon;timestamp;P1;durP1;ratioP1;P2;durP2;ratioP2
47603;SDS011;33326;51.116;6.900;2023-05-02T00:03:56;33.10;;;25.80;;
47603;SDS011;33326;51.116;6.900;2023-05-02T00:08:59;30.45;;;24.75;;
47603;SDS011;33326;51.116;6.900;2023-05-02T00:14:01;31.77;;;25.98;;
47603;SDS011;33326;51.116;6.900;2023-05-02T00:19:03;35.35;;;24.60;;
47603;SDS011;33326;51.116;6.900;2023-05-02T00:24:06;33.45;;;25.45;;
47603;SDS011;33326;51.116;6.900;2023-05-02T00:29:08;32.22;;;25.63;;
47603;SDS011;33326;51.116;6.900;2023-05-02T00:34:10;34.85;;;26.98;;
47603;SDS011;33326;51.116;6.900;2023-05-02T00:39:13;38.40;;;29.23;;
47603;SDS011;33326;51.116;6.900;2023-05-02T00:44:15;40.15;;;31.50;;
47603;SDS011;33326;51.116;6.900;2023-05-02T00:49:17;47.40;;;33.25;;
47603;SDS011;33326;51.116;6.900;2023-05-02T00:54:20;44.35;;;33.33;;
47603;SDS011;33326;51.116;6.900;2023-05-02T00:59:22;47.80;;;35.08;;
47603;SDS011;33326;51.116;6.900;2023-05-02T01:04:29;51.03;;;37.22;;
47603;SDS011;33326;51.116;6.900;2023-05-02T01:09:51;52.80;;;35.28;;
47603;SDS011;33326;51.116;6.900;2023-05-02T01:15:14;51.33;;;35.42;;
47603;SDS011;33326;51.116;6.900;2023-05-02T01:20:19;55.45;;;39.45;;
47603;SDS011;33326;51.116;6.900;2023-05-02T01:25:26;57.70;;;38.42;;
47603;SDS011;33326;51.116;6.900;2023-05-02T01:30:35;57.67;;;38.70;;
47603;SDS011;33326;51.116;6.900;2023-05-02T01:35:39;57.75;;;39.45;;
47603;SDS011;33326;51.116;6.900;2023-05-02T01:40:44;63.70;;;41.38;;
47603;SDS011;33326;51.116;6.900;2023-05-02T01:45:48;63.05;;;41.97;;
47603;SDS011;33326;51.116;6.900;2023-05-02T01:50:53;64.53;;;42.35;;
47603;SDS011;33326;51.116;6.900;2023-05-02T01:55:57;70.45;;;43.20;;
47603;SDS011;33326;51.116;6.900;2023-05-02T02:01:01;65.90;;;42.17;;
47603;SDS011;33326;51.116;6.900;2023-05-02T02:06:04;65.30;;;41.20;;
47603;SDS011;33326;51.116;6.900;2023-05-02T02:11:07;64.03;;;40.58;;
47603;SDS011;33326;51.116;6.900;2023-05-02T02:16:16;57.78;;;37.72;;
47603;SDS011;33326;51.116;6.900;2023-05-02T02:21:24;64.85;;;39.53;;
47603;SDS011;33326;51.116;6.900;2023-05-02T02:26:29;61.60;;;38.00;;
47603;SDS011;33326;51.116;6.900;2023-05-02T02:31:32;61.78;;;38.20;;
47603;SDS011;33326;51.116;6.900;2023-05-02T02:36:35;64.88;;;37.55;;
47603;SDS011;33326;51.116;6.900;2023-05-02T02:41:47;59.40;;;37.22;;
47603;SDS011;33326;51.116;6.900;2023-05-02T02:47:05;53.78;;;33.60;;
47603;SDS011;33326;51.116;6.900;2023-05-02T02:52:13;50.03;;;32.93;;
47603;SDS011;33326;51.116;6.900;2023-05-02T02:57:23;53.03;;;33.45;;
47603;SDS011;33326;51.116;6.900;2023-05-02T03:02:34;54.72;;;34.78;;
47603;SDS011;33326;51.116;6.900;2023-05-02T03:07:37;54.45;;;34.25;;
47603;SDS011;33326;51.116;6.900;2023-05-02T03:12:39;54.85;;;34.50;;
47603;SDS011;33326;51.116;6.900;2023-05-02T03:17:44;59.25;;;34.15;;
47603;SDS011;33326;51.116;6.900;2023-05-02T03:22:46;53.50;;;34.45;;
47603;SDS011;33326;51.116;6.900;2023-05-02T03:27:48;54.38;;;34.72;;
47603;SDS011;33326;51.116;6.900;2023-05-02T03:32:51;53.78;;;34.50;;
47603;SDS011;33326;51.116;6.900;2023-05-02T03:37:53;58.10;;;36.22;;
47603;SDS011;33326;51.116;6.900;2023-05-02T03:42:55;57.13;;;34.63;;
47603;SDS011;33326;51.116;6.900;2023-05-02T03:48:04;56.90;;;34.33;;
47603;SDS011;33326;51.116;6.900;2023-05-02T03:53:06;56.53;;;35.10;;
47603;SDS011;33326;51.116;6.900;2023-05-02T03:58:18;53.05;;;32.22;;
47603;SDS011;33326;51.116;6.900;2023-05-02T04:03:21;56.90;;;35.03;;
47603;SDS011;33326;51.116;6.900;2023-05-02T04:08:24;51.35;;;32.60;;
47603;SDS011;33326;51.116;6.900;2023-05-02T04:13:26;52.80;;;33.13;;
47603;SDS011;33326;51.116;6.900;2023-05-02T04:18:31;49.90;;;31.77;;
47603;SDS011;33326;51.116;6.900;2023-05-02T04:23:37;51.35;;;32.42;;
47603;SDS011;33326;51.116;6.900;2023-05-02T04:28:40;55.88;;;33.42;;
47603;SDS011;33326;51.116;6.900;2023-05-02T04:33:45;52.75;;;32.60;;
47603;SDS011;33326;51.116;6.900;2023-05-02T04:38:49;48.20;;;28.92;;
47603;SDS011;33326;51.116;6.900;2023-05-02T04:43:52;48.10;;;29.60;;
47603;SDS011;33326;51.116;6.900;2023-05-02T04:48:56;47.55;;;29.15;;
47603;SDS011;33326;51.116;6.900;2023-05-02T04:53:58;48.25;;;29.75;;
47603;SDS011;33326;51.116;6.900;2023-05-02T04:59:01;47.70;;;28.48;;
47603;SDS011;33326;51.116;6.900;2023-05-02T05:04:06;52.13;;;30.63;;
47603;SDS011;33326;51.116;6.900;2023-05-02T05:09:08;45.05;;;28.35;;
47603;SDS011;33326;51.116;6.900;2023-05-02T05:14:10;45.78;;;26.48;;
47603;SDS011;33326;51.116;6.900;2023-05-02T05:19:15;46.95;;;28.10;;
47603;SDS011;33326;51.116;6.900;2023-05-02T05:24:17;43.28;;;26.30;;
47603;SDS011;33326;51.116;6.900;2023-05-02T05:29:20;42.22;;;24.58;;
47603;SDS011;33326;51.116;6.900;2023-05-02T05:34:23;41.53;;;24.67;;
47603;SDS011;33326;51.116;6.900;2023-05-02T05:39:30;38.85;;;24.15;;
47603;SDS011;33326;51.116;6.900;2023-05-02T05:44:34;41.47;;;23.40;;
47603;SDS011;33326;51.116;6.900;2023-05-02T05:49:37;42.45;;;23.40;;
47603;SDS011;33326;51.116;6.900;2023-05-02T05:54:43;45.60;;;25.38;;
47603;SDS011;33326;51.116;6.900;2023-05-02T05:59:46;44.90;;;26.25;;
47603;SDS011;33326;51.116;6.900;2023-05-02T06:04:50;54.63;;;28.30;;
47603;SDS011;33326;51.116;6.900;2023-05-02T06:09:55;48.70;;;27.02;;
47603;SDS011;33326;51.116;6.900;2023-05-02T06:14:57;47.83;;;27.85;;
47603;SDS011;33326;51.116;6.900;2023-05-02T06:20:01;49.80;;;27.13;;
47603;SDS011;33326;51.116;6.900;2023-05-02T06:25:04;46.20;;;26.30;;
47603;SDS011;33326;51.116;6.900;2023-05-02T06:30:07;39.50;;;24.52;;
47603;SDS011;33326;51.116;6.900;2023-05-02T06:35:11;34.88;;;22.17;;
47603;SDS011;33326;51.116;6.900;2023-05-02T06:40:13;25.25;;;18.13;;
47603;SDS011;33326;51.116;6.900;2023-05-02T06:45:15;26.30;;;18.40;;
47603;SDS011;33326;51.116;6.900;2023-05-02T06:50:18;31.25;;;21.85;;
47603;SDS011;33326;51.116;6.900;2023-05-02T06:55:20;32.75;;;23.73;;
47603;SDS011;33326;51.116;6.900;2023-05-02T07:00:22;38.15;;;24.23;;
47603;SDS011;33326;51.116;6.900;2023-05-02T07:05:26;33.65;;;22.17;;
47603;SDS011;33326;51.116;6.900;2023-05-02T07:10:29;32.60;;;20.83;;
47603;SDS011;33326;51.116;6.900;2023-05-02T07:15:31;24.33;;;16.20;;
47603;SDS011;33326;51.116;6.900;2023-05-02T07:20:34;27.67;;;15.05;;
47603;SDS011;33326;51.116;6.900;2023-05-02T07:25:37;23.17;;;13.75;;
47603;SDS011;33326;51.116;6.900;2023-05-02T07:30:39;22.88;;;11.48;;
47603;SDS011;33326;51.116;6.900;2023-05-02T07:35:42;18.13;;;9.48;;
47603;SDS011;33326;51.116;6.900;2023-05-02T07:40:44;16.70;;;7.63;;
47603;SDS011;33326;51.116;6.900;2023-05-02T07:45:46;13.90;;;7.05;;
47603;SDS011;33326;51.116;6.900;2023-05-02T07:50:49;14.57;;;7.00;;
47603;SDS011;33326;51.116;6.900;2023-05-02T07:55:51;18.05;;;11.05;;
47603;SDS011;33326;51.116;6.900;2023-05-02T08:00:53;19.58;;;12.43;;
47603;SDS011;33326;51.116;6.900;2023-05-02T08:05:56;18.58;;;11.65;;
47603;SDS011;33326;51.116;6.900;2023-05-02T08:10:58;24.13;;;13.52;;
47603;SDS011;33326;51.116;6.900;2023-05-02T08:16:00;19.48;;;13.57;;
47603;SDS011;33326;51.116;6.900;2023-05-02T08:21:03;25.73;;;15.20;;
47603;SDS011;33326;51.116;6.900;2023-05-02T08:26:05;13.52;;;7.85;;
47603;SDS011;33326;51.116;6.900;2023-05-02T08:31:10;17.45;;;6.40;;
47603;SDS011;33326;51.116;6.900;2023-05-02T08:36:14;12.02;;;5.10;;
47603;SDS011;33326;51.116;6.900;2023-05-02T08:41:17;10.68;;;5.88;;
47603;SDS011;33326;51.116;6.900;2023-05-02T08:46:19;17.48;;;9.38;;
47603;SDS011;33326;51.116;6.900;2023-05-02T08:51:25;18.92;;;8.30;;
47603;SDS011;33326;51.116;6.900;2023-05-02T08:56:28;12.80;;;8.00;;
47603;SDS011;33326;51.116;6.900;2023-05-02T09:01:30;13.07;;;8.13;;
47603;SDS011;33326;51.116;6.900;2023-05-02T09:06:36;14.05;;;7.38;;
47603;SDS011;33326;51.116;6.900;2023-05-02T09:11:38;11.65;;;6.90;;
47603;SDS011;33326;51.116;6.900;2023-05-02T09:16:41;10.10;;;6.85;;
47603;SDS011;33326;51.116;6.900;2023-05-02T09:21:45;13.73;;;7.32;;
47603;SDS011;33326;51.116;6.900;2023-05-02T09:26:55;12.77;;;7.38;;
47603;SDS011;33326;51.116;6.900;2023-05-02T09:31:58;10.38;;;6.97;;
47603;SDS011;33326;51.116;6.900;2023-05-02T09:37:01;10.10;;;5.95;;
47603;SDS011;33326;51.116;6.900;2023-05-02T09:42:04;11.88;;;6.30;;
47603;SDS011;33326;51.116;6.900;2023-05-02T09:47:06;12.25;;;7.20;;
47603;SDS011;33326;51.116;6.900;2023-05-02T09:52:10;11.02;;;6.75;;
47603;SDS011;33326;51.116;6.900;2023-05-02T09:57:13;13.25;;;6.95;;
47603;SDS011;33326;51.116;6.900;2023-05-02T10:02:15;7.72;;;5.75;;
47603;SDS011;33326;51.116;6.900;2023-05-02T10:07:18;9.52;;;6.22;;
47603;SDS011;33326;51.116;6.900;2023-05-02T10:12:21;9.48;;;4.43;;
47603;SDS011;33326;51.116;6.900;2023-05-02T10:17:27;7.93;;;3.47;;
47603;SDS011;33326;51.116;6.900;2023-05-02T10:22:33;7.68;;;3.42;;
47603;SDS011;33326;51.116;6.900;2023-05-02T10:27:36;7.18;;;3.08;;
47603;SDS011;33326;51.116;6.900;2023-05-02T10:32:38;8.73;;;4.13;;
47603;SDS011;33326;51.116;6.900;2023-05-02T10:37:42;9.07;;;3.65;;
47603;SDS011;33326;51.116;6.900;2023-05-02T10:42:46;6.60;;;3.17;;
47603;SDS011;33326;51.116;6.900;2023-05-02T10:47:50;8.57;;;3.22;;
47603;SDS011;33326;51.116;6.900;2023-05-02T10:53:27;9.65;;;3.35;;
47603;SDS011;33326;51.116;6.900;2023-05-02T10:58:33;10.10;;;4.43;;
47603;SDS011;33326;51.116;6.900;2023-05-02T11:03:52;10.60;;;4.65;;
47603;SDS011;33326;51.116;6.900;2023-05-02T11:14:43;13.00;;;4.88;;
47603;SDS011;33326;51.116;6.900;2023-05-02T11:25:32;7.35;;;4.20;;
47603;SDS011;33326;51.116;6.900;2023-05-02T11:30:43;10.80;;;4.57;;
47603;SDS011;33326;51.116;6.900;2023-05-02T11:35:47;11.07;;;3.85;;
47603;SDS011;33326;51.116;6.900;2023-05-02T11:40:57;9.40;;;4.30;;
47603;SDS011;33326;51.116;6.900;2023-05-02T11:46:01;14.57;;;4.93;;
47603;SDS011;33326;51.116;6.900;2023-05-02T11:51:05;11.25;;;5.00;;
47603;SDS011;33326;51.116;6.900;2023-05-02T11:56:07;14.25;;;5.68;;
47603;SDS011;33326;51.116;6.900;2023-05-02T12:01:13;14.27;;;6.28;;
47603;SDS011;33326;51.116;6.900;2023-05-02T12:06:16;11.07;;;5.18;;
47603;SDS011;33326;51.116;6.900;2023-05-02T12:11:18;13.85;;;5.13;;
47603;SDS011;33326;51.116;6.900;2023-05-02T12:16:22;7.63;;;4.53;;
47603;SDS011;33326;51.116;6.900;2023-05-02T12:21:24;13.00;;;4.78;;
47603;SDS011;33326;51.116;6.900;2023-05-02T12:26:27;11.75;;;5.30;;
47603;SDS011;33326;51.116;6.900;2023-05-02T12:31:33;10.32;;;5.40;;
47603;SDS011;33326;51.116;6.900;2023-05-02T12:36:35;10.93;;;5.32;;
47603;SDS011;33326;51.116;6.900;2023-05-02T12:41:45;13.60;;;6.30;;
47603;SDS011;33326;51.116;6.900;2023-05-02T12:46:58;14.18;;;6.70;;
47603;SDS011;33326;51.116;6.900;2023-05-02T12:52:00;9.63;;;5.85;;
47603;SDS011;33326;51.116;6.900;2023-05-02T12:57:02;9.57;;;5.43;;
47603;SDS011;33326;51.116;6.900;2023-05-02T13:02:06;10.32;;;5.25;;
47603;SDS011;33326;51.116;6.900;2023-05-02T13:07:08;18.00;;;4.85;;
47603;SDS011;33326;51.116;6.900;2023-05-02T13:12:10;11.52;;;5.40;;
47603;SDS011;33326;51.116;6.900;2023-05-02T13:17:14;9.40;;;5.10;;
47603;SDS011;33326;51.116;6.900;2023-05-02T13:22:16;9.52;;;4.50;;
47603;SDS011;33326;51.116;6.900;2023-05-02T13:27:23;13.43;;;5.05;;
47603;SDS011;33326;51.116;6.900;2023-05-02T13:32:37;11.95;;;4.60;;
47603;SDS011;33326;51.116;6.900;2023-05-02T13:37:39;13.00;;;4.93;;
47603;SDS011;33326;51.116;6.900;2023-05-02T13:42:41;10.40;;;4.63;;
47603;SDS011;33326;51.116;6.900;2023-05-02T13:47:44;10.20;;;4.63;;
47603;SDS011;33326;51.116;6.900;2023-05-02T13:52:47;10.70;;;4.40;;
47603;SDS011;33326;51.116;6.900;2023-05-02T13:57:48;6.57;;;3.50;;
47603;SDS011;33326;51.116;6.900;2023-05-02T14:02:51;9.18;;;4.00;;
47603;SDS011;33326;51.116;6.900;2023-05-02T14:07:53;8.88;;;3.97;;
47603;SDS011;33326;51.116;6.900;2023-05-02T14:12:55;9.40;;;4.05;;
47603;SDS011;33326;51.116;6.900;2023-05-02T14:17:58;7.78;;;3.15;;
47603;SDS011;33326;51.116;6.900;2023-05-02T14:23:00;8.05;;;3.40;;
47603;SDS011;33326;51.116;6.900;2023-05-02T14:28:02;5.80;;;3.25;;
47603;SDS011;33326;51.116;6.900;2023-05-02T14:33:06;5.40;;;3.08;;
47603;SDS011;33326;51.116;6.900;2023-05-02T14:38:08;6.80;;;3.03;;
47603;SDS011;33326;51.116;6.900;2023-05-02T14:43:09;6.60;;;2.83;;
47603;SDS011;33326;51.116;6.900;2023-05-02T14:48:13;6.55;;;2.60;;
47603;SDS011;33326;51.116;6.900;2023-05-02T14:53:16;5.70;;;2.70;;
47603;SDS011;33326;51.116;6.900;2023-05-02T14:58:18;9.45;;;3.30;;
47603;SDS011;33326;51.116;6.900;2023-05-02T15:03:21;7.50;;;3.00;;
47603;SDS011;33326;51.116;6.900;2023-05-02T15:08:23;7.00;;;3.00;;
47603;SDS011;33326;51.116;6.900;2023-05-02T15:13:25;6.35;;;2.95;;
47603;SDS011;33326;51.116;6.900;2023-05-02T15:18:28;7.75;;;3.17;;
47603;SDS011;33326;51.116;6.900;2023-05-02T15:23:30;6.18;;;3.10;;
47603;SDS011;33326;51.116;6.900;2023-05-02T15:28:32;6.65;;;3.30;;
47603;SDS011;33326;51.116;6.900;2023-05-02T15:33:35;8.50;;;3.72;;
47603;SDS011;33326;51.116;6.900;2023-05-02T15:38:38;9.38;;;3.67;;
47603;SDS011;33326;51.116;6.900;2023-05-02T15:43:41;6.32;;;3.17;;
47603;SDS011;33326;51.116;6.900;2023-05-02T15:48:44;8.07;;;3.60;;
47603;SDS011;33326;51.116;6.900;2023-05-02T15:53:48;6.85;;;3.25;;
47603;SDS011;33326;51.116;6.900;2023-05-02T15:58:51;7.43;;;3.20;;
47603;SDS011;33326;51.116;6.900;2023-05-02T16:03:54;6.88;;;3.25;;
47603;SDS011;33326;51.116;6.900;2023-05-02T16:08:56;10.18;;;3.45;;
47603;SDS011;33326;51.116;6.900;2023-05-02T16:13:58;9.13;;;3.78;;
47603;SDS011;33326;51.116;6.900;2023-05-02T16:19:05;12.15;;;3.65;;
47603;SDS011;33326;51.116;6.900;2023-05-02T16:24:11;11.07;;;4.25;;
47603;SDS011;33326;51.116;6.900;2023-05-02T16:29:13;9.20;;;4.10;;
47603;SDS011;33326;51.116;6.900;2023-05-02T16:34:17;12.75;;;5.00;;
47603;SDS011;33326;51.116;6.900;2023-05-02T16:39:19;14.80;;;4.90;;
47603;SDS011;33326;51.116;6.900;2023-05-02T16:44:20;11.52;;;5.20;;
47603;SDS011;33326;51.116;6.900;2023-05-02T16:49:24;10.45;;;4.72;;
47603;SDS011;33326;51.116;6.900;2023-05-02T16:54:26;11.13;;;5.07;;
47603;SDS011;33326;51.116;6.900;2023-05-02T16:59:28;11.45;;;4.43;;
47603;SDS011;33326;51.116;6.900;2023-05-02T17:04:31;12.02;;;4.13;;
47603;SDS011;33326;51.116;6.900;2023-05-02T17:09:33;11.75;;;4.72;;
47603;SDS011;33326;51.116;6.900;2023-05-02T17:14:36;8.48;;;3.70;;
47603;SDS011;33326;51.116;6.900;2023-05-02T17:19:40;11.75;;;4.45;;
47603;SDS011;33326;51.116;6.900;2023-05-02T17:24:42;12.40;;;4.70;;
47603;SDS011;33326;51.116;6.900;2023-05-02T17:29:47;10.35;;;4.75;;
47603;SDS011;33326;51.116;6.900;2023-05-02T17:34:50;10.43;;;4.80;;
47603;SDS011;33326;51.116;6.900;2023-05-02T17:39:52;10.45;;;4.35;;
47603;SDS011;33326;51.116;6.900;2023-05-02T17:44:54;7.72;;;3.60;;
47603;SDS011;33326;51.116;6.900;2023-05-02T17:49:57;11.82;;;4.07;;
47603;SDS011;33326;51.116;6.900;2023-05-02T17:55:01;10.60;;;4.03;;
47603;SDS011;33326;51.116;6.900;2023-05-02T18:00:03;13.45;;;4.13;;
47603;SDS011;33326;51.116;6.900;2023-05-02T18:05:10;13.02;;;4.65;;
47603;SDS011;33326;51.116;6.900;2023-05-02T18:10:12;14.68;;;4.53;;
47603;SDS011;33326;51.116;6.900;2023-05-02T18:15:14;11.73;;;4.30;;
47603;SDS011;33326;51.116;6.900;2023-05-02T18:20:18;10.57;;;3.35;;
47603;SDS011;33326;51.116;6.900;2023-05-02T18:25:21;11.10;;;3.65;;
47603;SDS011;33326;51.116;6.900;2023-05-02T18:30:23;7.40;;;3.15;;
47603;SDS011;33326;51.116;6.900;2023-05-02T18:35:26;7.68;;;3.65;;
47603;SDS011;33326;51.116;6.900;2023-05-02T18:40:28;9.88;;;3.67;;
47603;SDS011;33326;51.116;6.900;2023-05-02T18:45:31;10.70;;;3.70;;
47603;SDS011;33326;51.116;6.900;2023-05-02T18:50:35;14.23;;;3.88;;
47603;SDS011;33326;51.116;6.900;2023-05-02T18:55:37;10.10;;;3.90;;
47603;SDS011;33326;51.116;6.900;2023-05-02T19:00:39;12.63;;;3.88;;
47603;SDS011;33326;51.116;6.900;2023-05-02T19:05:44;10.80;;;4.18;;
47603;SDS011;33326;51.116;6.900;2023-05-02T19:10:49;9.77;;;3.42;;
47603;SDS011;33326;51.116;6.900;2023-05-02T19:15:50;10.35;;;3.72;;
47603;SDS011;33326;51.116;6.900;2023-05-02T19:20:54;12.60;;;4.25;;
47603;SDS011;33326;51.116;6.900;2023-05-02T19:25:56;12.07;;;3.95;;
47603;SDS011;33326;51.116;6.900;2023-05-02T19:30:58;10.25;;;4.20;;
47603;SDS011;33326;51.116;6.900;2023-05-02T19:36:01;12.88;;;4.40;;
47603;SDS011;33326;51.116;6.900;2023-05-02T19:41:05;9.65;;;4.28;;
47603;SDS011;33326;51.116;6.900;2023-05-02T19:46:07;9.07;;;3.95;;
47603;SDS011;33326;51.116;6.900;2023-05-02T19:51:11;8.68;;;4.55;;
47603;SDS011;33326;51.116;6.900;2023-05-02T19:56:13;11.48;;;4.63;;
47603;SDS011;33326;51.116;6.900;2023-05-02T20:01:14;10.73;;;4.00;;
47603;SDS011;33326;51.116;6.900;2023-05-02T20:06:18;10.02;;;4.40;;
47603;SDS011;33326;51.116;6.900;2023-05-02T20:11:19;10.55;;;4.85;;
47603;SDS011;33326;51.116;6.900;2023-05-02T20:16:21;14.55;;;5.13;;
47603;SDS011;33326;51.116;6.900;2023-05-02T20:21:25;10.50;;;4.47;;
47603;SDS011;33326;51.116;6.900;2023-05-02T20:26:26;14.35;;;5.35;;
47603;SDS011;33326;51.116;6.900;2023-05-02T20:31:30;11.02;;;5.25;;
47603;SDS011;33326;51.116;6.900;2023-05-02T20:36:33;11.73;;;5.63;;
47603;SDS011;33326;51.116;6.900;2023-05-02T20:41:35;12.00;;;5.32;;
47603;SDS011;33326;51.116;6.900;2023-05-02T20:46:37;12.18;;;6.50;;
47603;SDS011;33326;51.116;6.900;2023-05-02T20:51:40;11.50;;;5.85;;
47603;SDS011;33326;51.116;6.900;2023-05-02T20:56:42;13.85;;;6.05;;
47603;SDS011;33326;51.116;6.900;2023-05-02T21:01:44;19.98;;;6.15;;
47603;SDS011;33326;51.116;6.900;2023-05-02T21:06:49;10.43;;;5.53;;
47603;SDS011;33326;51.116;6.900;2023-05-02T21:11:52;15.38;;;5.80;;
47603;SDS011;33326;51.116;6.900;2023-05-02T21:16:54;14.02;;;5.85;;
47603;SDS011;33326;51.116;6.900;2023-05-02T21:21:57;10.52;;;5.80;;
47603;SDS011;33326;51.116;6.900;2023-05-02T21:26:59;12.85;;;5.55;;
47603;SDS011;33326;51.116;6.900;2023-05-02T21:32:01;12.77;;;5.43;;
47603;SDS011;33326;51.116;6.900;2023-05-02T21:37:04;13.40;;;5.50;;
47603;SDS011;33326;51.116;6.900;2023-05-02T21:42:06;12.95;;;5.25;;
47603;SDS011;33326;51.116;6.900;2023-05-02T21:47:08;15.73;;;5.28;;
47603;SDS011;33326;51.116;6.900;2023-05-02T21:52:11;12.48;;;5.88;;
47603;SDS011;33326;51.116;6.900;2023-05-02T21:57:13;13.73;;;5.68;;
47603;SDS011;33326;51.116;6.900;2023-05-02T22:02:15;13.45;;;5.70;;
47603;SDS011;33326;51.116;6.900;2023-05-02T22:07:18;14.20;;;5.47;;
47603;SDS011;33326;51.116;6.900;2023-05-02T22:12:20;17.23;;;5.30;;
47603;SDS011;33326;51.116;6.900;2023-05-02T22:17:22;12.02;;;5.45;;
47603;SDS011;33326;51.116;6.900;2023-05-02T22:22:26;10.20;;;5.05;;
47603;SDS011;33326;51.116;6.900;2023-05-02T22:27:27;11.13;;;4.95;;
47603;SDS011;33326;51.116;6.900;2023-05-02T22:32:29;11.60;;;5.38;;
47603;SDS011;33326;51.116;6.900;2023-05-02T22:37:33;9.40;;;4.95;;
47603;SDS011;33326;51.116;6.900;2023-05-02T22:42:35;10.35;;;4.70;;
47603;SDS011;33326;51.116;6.900;2023-05-02T22:47:36;14.75;;;5.32;;
47603;SDS011;33326;51.116;6.900;2023-05-02T22:52:40;9.77;;;4.75;;
47603;SDS011;33326;51.116;6.900;2023-05-02T22:57:42;9.27;;;4.82;;
47603;SDS011;33326;51.116;6.900;2023-05-02T23:02:43;12.85;;;4.75;;
47603;SDS011;33326;51.116;6.900;2023-05-02T23:07:47;10.23;;;5.05;;
47603;SDS011;33326;51.116;6.900;2023-05-02T23:12:49;10.27;;;4.80;;
47603;SDS011;33326;51.116;6.900;2023-05-02T23:17:51;8.95;;;4.95;;
47603;SDS011;33326;51.116;6.900;2023-05-02T23:22:54;9.20;;;4.85;;
47603;SDS011;33326;51.116;6.900;2023-05-02T23:27:56;8.55;;;4.90;;
47603;SDS011;33326;51.116;6.900;2023-05-02T23:32:58;12.60;;;5.18;;
47603;SDS011;33326;51.116;6.900;2023-05-02T23:38:02;11.60;;;5.53;;
47603;SDS011;33326;51.116;6.900;2023-05-02T23:43:07;9.07;;;5.03;;
47603;SDS011;33326;51.116;6.900;2023-05-02T23:48:09;12.55;;;5.00;;
47603;SDS011;33326;51.116;6.900;2023-05-02T23:53:12;9.30;;;5.35;;
47603;SDS011;33326;51.116;6.900;2023-05-02T23:58:13;10.82;;;5.25;;
